logo
Search for airport 
image banner adimage banner adimage banner ad
image banner ad

LOGB - Bruck An Der Mur Lkh

Located in District Bruck-Murzzuschlag, Austria

ICAO - , IATA -

Data provided by Airmate  

General information

Coordinates: N47°25'25" E15°15'56"
Elevation is 1712 feet MSL.
 
View others Airports in Styria

Operational data

Special qualification required
Current time UTC:
Current local time:
Weather at : LOXZ - Zeltweg ( 46 km )
METAR: LOXZ 151020Z 09003KT 060V120 9999 FEW050 BKN220 19/10 Q1011 NOSIG
TAF: TAF LOXZ 150815Z 1509/1518 VRB03KT 9999 FEW060 SCT180 BKN250 TEMPO 1512/1518 04010KT SHRA SCT050CB BKN060 PROB40 TEMPO 1517/1518 04010G20KT 6000 TSRA SCT010 BKN050CB
View NOTAMs / SUP AIP / TFR affecting this airport [VIEW]
Communications frequencies: [VIEW]

Runways:

Airport contact information

Address: District Bruck-Murzzuschlag Austria

Satellite view of LOGB